Time;durP1;ratioP1;P1;durP2;ratioP2;P2;SDS_P1;SDS_P2;PMS_P1;PMS_P2;Temp;Humidity;BMP_temperature;BMP_pressure;BME280_temperature;BME280_humidity;BME280_pressure;Samples;Min_cycle;Max_cycle;Signal;HPM_P1;HPM_P2
2022/08/09 00:02:23;;;;;;;7.78;2.67;;;15.30;99.90;;;;;;5078972;28;20512;-49
2022/08/09 00:04:49;;;;;;;6.72;1.73;;;15.40;99.90;;;;;;5071630;28;20059;-49
2022/08/09 00:07:15;;;;;;;3.72;1.30;;;15.40;99.90;;;;;;5081395;28;20443;-49
2022/08/09 00:09:40;;;;;;;3.83;2.42;;;15.30;99.90;;;;;;5074035;28;20047;-49
2022/08/09 00:12:07;;;;;;;5.57;1.67;;;15.20;99.90;;;;;;5082750;28;20409;-49
2022/08/09 00:14:33;;;;;;;2.75;1.80;;;15.30;99.90;;;;;;5071228;28;20055;-49
2022/08/09 00:16:59;;;;;;;3.55;1.50;;;15.20;99.90;;;;;;5077930;28;20044;-48
2022/08/09 00:19:24;;;;;;;1.92;1.23;;;15.20;99.90;;;;;;5092063;28;20390;-48
2022/08/09 00:21:50;;;;;;;2.00;1.83;;;15.20;99.90;;;;;;5085032;28;20513;-49
2022/08/09 00:24:16;;;;;;;2.50;1.80;;;15.20;99.90;;;;;;5071037;28;20045;-49
2022/08/09 00:26:41;;;;;;;2.00;1.70;;;15.20;99.90;;;;;;5075461;28;20032;-49
2022/08/09 00:29:07;;;;;;;1.77;1.67;;;15.10;99.90;;;;;;5091746;28;20032;-49
2022/08/09 00:31:33;;;;;;;1.83;1.70;;;15.10;99.90;;;;;;5088223;28;20509;-49
2022/08/09 00:33:59;;;;;;;1.52;1.38;;;15.00;99.90;;;;;;5070934;28;20127;-49
2022/08/09 00:36:25;;;;;;;4.25;0.95;;;15.00;99.90;;;;;;5072071;28;20545;-49
2022/08/09 00:38:50;;;;;;;3.95;1.83;;;14.90;99.90;;;;;;5091503;28;20110;-49
2022/08/09 00:41:19;;;;;;;2.30;1.88;;;14.80;99.90;;;;;;5091059;28;20395;-49
2022/08/09 00:43:45;;;;;;;1.60;1.50;;;14.60;99.90;;;;;;5070926;28;20587;-48
2022/08/09 00:46:10;;;;;;;1.95;1.52;;;14.50;99.90;;;;;;5070074;28;20067;-49
2022/08/09 00:48:36;;;;;;;1.85;1.35;;;14.40;99.90;;;;;;5088586;28;20036;-51
2022/08/09 00:51:05;;;;;;;1.10;0.95;;;14.40;99.90;;;;;;5090901;28;20040;-48
2022/08/09 00:53:31;;;;;;;0.90;0.90;;;14.40;99.90;;;;;;5073502;28;20056;-49
2022/08/09 00:55:57;;;;;;;1.02;0.93;;;14.40;99.90;;;;;;5070505;28;20057;-47
2022/08/09 00:58:23;;;;;;;0.80;0.70;;;14.40;99.90;;;;;;5085161;28;20043;-49
2022/08/09 01:00:53;;;;;;;0.63;0.45;;;14.30;99.90;;;;;;5090201;28;20402;-48
2022/08/09 01:03:30;;;;;;;1.13;0.88;;;14.30;99.90;;;;;;5076874;28;20082;-48
2022/08/09 01:06:17;;;;;;;1.35;0.90;;;14.30;99.90;;;;;;5070192;28;20043;-49
2022/08/09 01:09:15;;;;;;;3.47;0.73;;;14.30;99.90;;;;;;5086922;28;20044;-49
2022/08/09 01:11:49;;;;;;;;;;;14.20;99.90;;;;;;5034650;28;20064;-49
2022/08/09 01:14:19;;;;;;;1.30;0.82;;;14.20;99.90;;;;;;5070232;28;20278;-48
2022/08/09 01:16:48;;;;;;;1.10;1.00;;;14.20;99.90;;;;;;5070037;28;20041;-48
2022/08/09 01:19:38;;;;;;;1.73;1.63;;;14.10;99.90;;;;;;5070564;28;20047;-49
2022/08/09 01:22:33;;;;;;;0.57;0.40;;;14.10;99.90;;;;;;5070941;28;20413;-48
2022/08/09 01:25:23;;;;;;;1.83;0.73;;;14.10;99.90;;;;;;5090350;28;20409;-50
2022/08/09 01:27:52;;;;;;;1.17;0.60;;;14.10;99.90;;;;;;5082945;28;20040;-51
2022/08/09 01:30:20;;;;;;;1.50;1.02;;;14.00;99.90;;;;;;5070396;28;20044;-49
2022/08/09 01:32:49;;;;;;;1.27;1.00;;;13.90;99.90;;;;;;5075541;28;20051;-49
2022/08/09 01:35:23;;;;;;;1.35;1.25;;;14.00;99.90;;;;;;5072117;28;20071;-49
2022/08/09 01:37:54;;;;;;;2.10;1.13;;;13.90;99.90;;;;;;5084028;28;20037;-49
2022/08/09 01:40:23;;;;;;;1.27;0.50;;;14.00;99.90;;;;;;5070770;28;20048;-49
2022/08/09 01:42:49;;;;;;;2.40;1.10;;;14.00;99.90;;;;;;5074472;28;20382;-49
2022/08/09 01:45:17;;;;;;;1.50;1.02;;;14.00;99.90;;;;;;5090038;28;20043;-48
2022/08/09 01:47:44;;;;;;;3.00;0.73;;;14.00;99.90;;;;;;5086184;28;20397;-48
2022/08/09 01:50:11;;;;;;;1.15;0.68;;;13.90;99.90;;;;;;5070043;28;20521;-49
2022/08/09 01:52:38;;;;;;;1.60;1.50;;;13.80;99.90;;;;;;5071306;28;20406;-48
2022/08/09 01:55:05;;;;;;;0.60;0.50;;;13.80;99.90;;;;;;5089597;28;20398;-52
2022/08/09 01:57:42;;;;;;;1.90;0.88;;;13.80;99.90;;;;;;5089155;28;20497;-49
2022/08/09 02:00:10;;;;;;;2.10;1.33;;;13.70;99.90;;;;;;5052164;28;20409;-49
2022/08/09 02:02:39;;;;;;;0.93;0.75;;;13.60;99.90;;;;;;5070030;28;20063;-49
2022/08/09 02:05:09;;;;;;;1.42;0.80;;;13.60;99.90;;;;;;5069845;28;20041;-49
2022/08/09 02:07:41;;;;;;;4.82;1.05;;;13.50;99.90;;;;;;5069829;28;20132;-50
2022/08/09 02:10:18;;;;;;;1.20;0.95;;;13.50;99.90;;;;;;5088919;28;20186;-48
2022/08/09 02:12:45;;;;;;;0.82;0.70;;;13.40;99.90;;;;;;5090200;28;20095;-50
2022/08/09 02:15:12;;;;;;;0.85;0.80;;;13.30;99.90;;;;;;5070348;28;20639;-50
2022/08/09 02:17:40;;;;;;;1.20;1.10;;;13.20;99.90;;;;;;5069761;28;20063;-49
2022/08/09 02:20:06;;;;;;;3.25;1.35;;;13.20;99.90;;;;;;5070338;28;20076;-50
2022/08/09 02:22:35;;;;;;;;;;;13.20;99.90;;;;;;5070209;28;20043;-49
2022/08/09 02:25:03;;;;;;;1.55;1.27;;;13.10;99.90;;;;;;5089854;28;19923;-49
2022/08/09 02:27:31;;;;;;;1.13;0.70;;;13.10;99.90;;;;;;5093814;28;20114;-50
2022/08/09 02:29:57;;;;;;;1.20;0.90;;;13.00;99.90;;;;;;5059640;28;20115;-50
2022/08/09 02:32:27;;;;;;;1.35;0.90;;;13.00;99.90;;;;;;5072552;28;20036;-51
2022/08/09 02:34:58;;;;;;;2.50;0.90;;;12.90;99.90;;;;;;5087920;28;20036;-53
2022/08/09 02:37:28;;;;;;;1.00;0.90;;;12.90;99.90;;;;;;5093624;28;20047;-52
2022/08/09 02:40:05;;;;;;;1.70;1.00;;;12.90;99.90;;;;;;5079114;28;20072;-50
2022/08/09 02:42:34;;;;;;;1.30;0.98;;;12.80;99.90;;;;;;5073021;28;20076;-53
2022/08/09 02:45:12;;;;;;;1.67;1.55;;;12.90;99.90;;;;;;5086358;28;20040;-49
2022/08/09 02:47:40;;;;;;;0.90;0.52;;;12.90;99.90;;;;;;5093767;28;20072;-53
2022/08/09 02:50:14;;;;;;;0.73;0.30;;;13.00;99.90;;;;;;5091704;28;20429;-52
2022/08/09 02:52:48;;;;;;;0.38;0.20;;;13.00;99.90;;;;;;5093555;28;20055;-50
2022/08/09 02:55:16;;;;;;;0.40;0.25;;;12.90;99.90;;;;;;5078208;28;20036;-50
2022/08/09 02:57:43;;;;;;;2.58;0.50;;;12.90;99.90;;;;;;5054950;28;20047;-53
2022/08/09 03:00:10;;;;;;;0.80;0.55;;;12.80;99.90;;;;;;5085682;28;20040;-50
2022/08/09 03:02:39;;;;;;;0.80;0.50;;;12.70;99.90;;;;;;5093268;28;20032;-53
2022/08/09 03:05:07;;;;;;;2.78;1.05;;;12.70;99.90;;;;;;5090867;28;20032;-52
2022/08/09 03:07:34;;;;;;;4.60;1.25;;;12.80;99.90;;;;;;5063012;28;20443;-53
2022/08/09 03:10:02;;;;;;;2.60;2.40;;;12.80;99.90;;;;;;5083047;28;20341;-52
2022/08/09 03:12:29;;;;;;;3.83;1.70;;;12.90;99.90;;;;;;5093056;28;20048;-51
2022/08/09 03:14:56;;;;;;;1.77;1.55;;;12.90;99.90;;;;;;5083056;28;20089;-50
2022/08/09 03:17:23;;;;;;;2.05;1.40;;;13.00;99.90;;;;;;5079176;28;20048;-51
2022/08/09 03:19:49;;;;;;;3.65;1.30;;;13.00;99.90;;;;;;5084323;28;20032;-50
2022/08/09 03:22:17;;;;;;;2.80;2.22;;;13.00;99.90;;;;;;5072271;28;20133;-50
2022/08/09 03:24:42;;;;;;;2.63;2.25;;;13.00;99.90;;;;;;5078453;28;20496;-53
2022/08/09 03:27:09;;;;;;;5.30;3.45;;;13.00;99.90;;;;;;5072657;28;20078;-52
2022/08/09 03:29:37;;;;;;;4.30;2.63;;;13.00;99.90;;;;;;5087804;28;20044;-51
2022/08/09 03:32:03;;;;;;;1.80;1.27;;;13.00;99.90;;;;;;5072564;28;20051;-51
2022/08/09 03:34:29;;;;;;;17.08;1.85;;;13.00;99.90;;;;;;5074767;28;20039;-53
2022/08/09 03:36:56;;;;;;;5.65;1.58;;;12.90;99.90;;;;;;5092081;28;20043;-49
2022/08/09 03:39:24;;;;;;;4.05;1.55;;;12.90;99.90;;;;;;5078254;28;20111;-51
2022/08/09 03:41:50;;;;;;;2.33;1.70;;;12.90;99.90;;;;;;5092409;28;20139;-54
2022/08/09 03:44:16;;;;;;;;;;;12.90;99.90;;;;;;5092162;28;20032;-52
2022/08/09 03:46:42;;;;;;;4.65;1.60;;;12.90;99.90;;;;;;5072056;28;19916;-50
2022/08/09 03:49:08;;;;;;;3.08;1.33;;;12.90;99.90;;;;;;5073588;28;20040;-52
2022/08/09 03:51:34;;;;;;;1.92;1.77;;;12.80;99.90;;;;;;5089923;28;20050;-52
2022/08/09 03:54:00;;;;;;;;;;;12.80;99.90;;;;;;5092118;28;20091;-53
2022/08/09 03:56:26;;;;;;;2.58;2.03;;;12.70;99.90;;;;;;5075230;28;20393;-51
2022/08/09 03:58:52;;;;;;;1.80;1.65;;;12.60;99.90;;;;;;5074828;28;20028;-52
2022/08/09 04:01:17;;;;;;;1.98;1.83;;;12.60;99.90;;;;;;5076999;28;20051;-54
2022/08/09 04:03:44;;;;;;;2.35;2.10;;;12.50;99.90;;;;;;5071322;28;20460;-54
2022/08/09 04:06:09;;;;;;;;;;;12.50;99.90;;;;;;5084361;28;20040;-52
2022/08/09 04:08:35;;;;;;;2.75;0.90;;;12.40;99.90;;;;;;5092019;28;20388;-54
2022/08/09 04:11:00;;;;;;;2.20;1.23;;;12.30;99.90;;;;;;5084579;28;20035;-50
2022/08/09 04:13:26;;;;;;;1.85;1.10;;;12.30;99.90;;;;;;5091658;28;20266;-50
2022/08/09 04:15:52;;;;;;;2.95;1.00;;;12.30;99.90;;;;;;5081786;28;20032;-49
2022/08/09 04:18:18;;;;;;;2.17;1.33;;;12.30;99.90;;;;;;5073219;28;20049;-49
2022/08/09 04:20:46;;;;;;;2.20;0.85;;;12.30;99.90;;;;;;5079862;28;20290;-50
2022/08/09 04:23:11;;;;;;;1.20;1.05;;;12.30;99.90;;;;;;5093036;28;20096;-48
2022/08/09 04:25:37;;;;;;;1.47;0.97;;;12.30;99.90;;;;;;5084251;28;20103;-49
2022/08/09 04:28:03;;;;;;;1.95;1.13;;;12.30;99.90;;;;;;5071408;28;20317;-53
2022/08/09 04:30:28;;;;;;;1.73;1.45;;;12.30;99.90;;;;;;5072267;28;20628;-54
2022/08/09 04:32:54;;;;;;;2.83;1.10;;;12.30;99.90;;;;;;5070692;28;20055;-53
2022/08/09 04:35:19;;;;;;;0.87;0.70;;;12.30;99.90;;;;;;5074113;28;20774;-54
2022/08/09 04:37:45;;;;;;;1.03;0.70;;;12.30;99.90;;;;;;5091183;28;20634;-50
2022/08/09 04:40:11;;;;;;;1.13;1.05;;;12.30;99.90;;;;;;5089509;28;20068;-52
2022/08/09 04:42:37;;;;;;;2.03;0.90;;;12.30;99.90;;;;;;5073032;28;20047;-49
2022/08/09 04:45:03;;;;;;;2.40;1.13;;;12.30;99.90;;;;;;5090530;28;20044;-54
2022/08/09 04:47:29;;;;;;;2.90;1.17;;;12.30;99.90;;;;;;5089494;28;20093;-51
2022/08/09 04:49:55;;;;;;;3.65;1.00;;;12.30;99.90;;;;;;5090729;28;20032;-52
2022/08/09 04:52:25;;;;;;;1.13;0.90;;;12.30;99.90;;;;;;5089421;28;20119;-52
2022/08/09 04:54:51;;;;;;;1.98;1.08;;;12.30;99.90;;;;;;5090669;28;20451;-54
2022/08/09 04:57:17;;;;;;;2.08;1.42;;;12.40;99.90;;;;;;5054773;28;20037;-51
2022/08/09 04:59:43;;;;;;;0.95;0.80;;;12.40;99.90;;;;;;5070575;28;20131;-54
2022/08/09 05:02:08;;;;;;;1.30;1.02;;;12.40;99.90;;;;;;5086065;28;20119;-51
2022/08/09 05:04:34;;;;;;;1.65;0.98;;;12.50;99.90;;;;;;5090091;28;20044;-54
2022/08/09 05:07:00;;;;;;;3.45;0.82;;;12.50;99.90;;;;;;5076451;28;20104;-53
2022/08/09 05:09:27;;;;;;;2.20;1.00;;;12.60;99.90;;;;;;5070494;28;20082;-51
2022/08/09 05:11:53;;;;;;;2.20;1.23;;;12.60;99.90;;;;;;5071574;28;20448;-50
2022/08/09 05:14:19;;;;;;;2.10;0.87;;;12.70;99.90;;;;;;5070184;28;20086;-50
2022/08/09 05:16:44;;;;;;;1.42;1.33;;;12.80;99.90;;;;;;5079755;28;20489;-53
2022/08/09 05:19:12;;;;;;;4.40;1.90;;;12.80;99.90;;;;;;5090434;28;20039;-53
2022/08/09 05:21:38;;;;;;;1.42;1.27;;;12.90;99.90;;;;;;5089537;28;20085;-54
2022/08/09 05:24:04;;;;;;;6.40;3.22;;;13.00;99.90;;;;;;5091016;28;20036;-52
2022/08/09 05:26:30;;;;;;;6.43;3.47;;;13.10;99.90;;;;;;5084060;28;20036;-50
2022/08/09 05:28:56;;;;;;;;;;;13.20;99.90;;;;;;5071556;28;20033;-49
2022/08/09 05:31:21;;;;;;;4.47;3.05;;;13.40;99.90;;;;;;5071528;28;20408;-52
2022/08/09 05:33:47;;;;;;;5.63;3.47;;;13.40;99.90;;;;;;5070240;28;20044;-52
2022/08/09 05:36:12;;;;;;;6.53;4.93;;;13.60;99.90;;;;;;5082271;28;20051;-51
2022/08/09 05:38:38;;;;;;;5.83;5.23;;;13.70;99.90;;;;;;5082613;28;20516;-52
2022/08/09 05:41:04;;;;;;;8.88;6.40;;;13.90;99.90;;;;;;5085381;28;20509;-50
2022/08/09 05:43:29;;;;;;;6.70;5.57;;;14.10;99.90;;;;;;5082046;28;20608;-54
2022/08/09 05:45:55;;;;;;;9.82;6.85;;;14.20;99.90;;;;;;5072330;28;20040;-51
2022/08/09 05:48:20;;;;;;;9.40;6.85;;;14.40;99.90;;;;;;5088225;28;20028;-51
2022/08/09 05:50:47;;;;;;;14.00;7.15;;;14.50;99.90;;;;;;5089803;28;20040;-53
2022/08/09 05:53:13;;;;;;;10.30;7.35;;;14.70;99.90;;;;;;5088296;28;20048;-54
2022/08/09 05:55:38;;;;;;;6.13;5.55;;;14.80;99.90;;;;;;5088440;28;20044;-51
2022/08/09 05:58:04;;;;;;;11.45;6.15;;;15.00;99.90;;;;;;5076515;28;20432;-53
2022/08/09 06:00:30;;;;;;;8.00;5.70;;;15.10;99.90;;;;;;5093678;28;20040;-52
2022/08/09 06:02:57;;;;;;;10.90;6.95;;;15.30;99.90;;;;;;5078402;28;20037;-54
2022/08/09 06:05:25;;;;;;;8.95;6.05;;;15.40;99.90;;;;;;5074051;28;20033;-54
2022/08/09 06:07:51;;;;;;;11.52;6.18;;;15.50;99.90;;;;;;5084817;28;20058;-50
2022/08/09 06:10:16;;;;;;;8.55;6.95;;;15.70;99.90;;;;;;5093601;28;20063;-51
2022/08/09 06:12:42;;;;;;;7.13;6.40;;;15.80;99.90;;;;;;5082768;28;20055;-53
2022/08/09 06:15:08;;;;;;;7.38;6.68;;;16.00;99.90;;;;;;5083734;28;20044;-55
2022/08/09 06:17:33;;;;;;;10.93;6.28;;;16.10;99.90;;;;;;5078368;28;20032;-50
2022/08/09 06:19:59;;;;;;;10.77;5.30;;;16.20;99.90;;;;;;5081314;28;20040;-55
2022/08/09 06:22:25;;;;;;;12.38;5.82;;;16.40;99.90;;;;;;5073569;28;20136;-54
2022/08/09 06:24:50;;;;;;;7.45;5.35;;;16.50;99.90;;;;;;5092558;28;20047;-53
2022/08/09 06:27:16;;;;;;;7.75;5.35;;;16.60;99.90;;;;;;5093735;28;20040;-53
2022/08/09 06:29:42;;;;;;;7.40;3.88;;;16.70;99.90;;;;;;5089453;28;20043;-55
2022/08/09 06:32:08;;;;;;;6.55;3.75;;;16.90;99.90;;;;;;5082668;28;20106;-55
2022/08/09 06:34:33;;;;;;;5.05;3.03;;;17.00;99.90;;;;;;5085396;28;20063;-54
2022/08/09 06:36:59;;;;;;;5.03;3.55;;;17.10;99.90;;;;;;5092160;28;20456;-54
2022/08/09 06:39:25;;;;;;;3.47;2.10;;;17.20;99.90;;;;;;5092655;28;20032;-53
2022/08/09 06:41:50;;;;;;;4.32;2.92;;;17.30;99.90;;;;;;5093474;28;20052;-52
2022/08/09 06:44:16;;;;;;;3.90;1.55;;;17.50;99.90;;;;;;5092144;28;20032;-50
2022/08/09 06:46:42;;;;;;;4.47;1.80;;;17.60;99.90;;;;;;5090841;28;20031;-54
2022/08/09 06:49:07;;;;;;;;;;;17.70;99.90;;;;;;5076254;28;20047;-55
2022/08/09 06:51:34;;;;;;;3.13;1.63;;;17.80;99.90;;;;;;5090535;28;19916;-54
2022/08/09 06:53:59;;;;;;;4.55;1.70;;;17.90;99.90;;;;;;5088721;28;20067;-52
2022/08/09 06:56:25;;;;;;;3.95;1.67;;;18.00;99.90;;;;;;5085074;28;20036;-52
2022/08/09 06:58:51;;;;;;;2.60;1.15;;;18.10;99.90;;;;;;5072952;28;20040;-53
2022/08/09 07:01:16;;;;;;;5.22;1.58;;;18.20;99.90;;;;;;5084368;28;20047;-50
2022/08/09 07:03:42;;;;;;;2.65;1.42;;;18.30;99.90;;;;;;5093104;28;20044;-53
2022/08/09 07:06:07;;;;;;;2.30;0.90;;;18.30;99.90;;;;;;5076800;28;20563;-52
2022/08/09 07:08:34;;;;;;;3.60;1.33;;;18.40;99.90;;;;;;5072525;28;20106;-53
2022/08/09 07:11:01;;;;;;;2.45;1.27;;;18.50;99.90;;;;;;5073106;28;20082;-51
2022/08/09 07:13:27;;;;;;;4.63;0.70;;;18.60;99.90;;;;;;5084831;28;20094;-54
2022/08/09 07:15:53;;;;;;;4.07;1.48;;;18.70;99.90;;;;;;5085399;28;20481;-54
2022/08/09 07:18:18;;;;;;;5.28;1.40;;;18.80;99.90;;;;;;5080277;28;20032;-51
2022/08/09 07:20:44;;;;;;;11.27;1.33;;;18.90;99.90;;;;;;5084419;28;20290;-51
2022/08/09 07:23:11;;;;;;;3.40;0.88;;;18.90;99.90;;;;;;5076760;28;20506;-49
2022/08/09 07:25:36;;;;;;;6.32;1.00;;;19.10;99.90;;;;;;5076922;28;20043;-52
2022/08/09 07:28:02;;;;;;;2.72;1.02;;;19.10;99.90;;;;;;5077056;28;20345;-52
2022/08/09 07:30:27;;;;;;;17.52;1.20;;;19.20;99.90;;;;;;5076083;28;20032;-52
2022/08/09 07:32:53;;;;;;;;;;;19.20;99.90;;;;;;5078163;28;20090;-50
2022/08/09 07:35:18;;;;;;;1.33;0.60;;;19.30;99.90;;;;;;5076361;28;20003;-51
2022/08/09 07:37:44;;;;;;;3.58;0.90;;;19.30;99.90;;;;;;5089335;28;20036;-52
2022/08/09 07:40:10;;;;;;;;;;;19.40;99.90;;;;;;5096402;28;20089;-51
2022/08/09 07:42:52;;;;;;;3.88;1.30;;;19.50;99.90;;;;;;5093598;28;19919;-53
2022/08/09 07:45:24;;;;;;;3.53;1.05;;;19.60;99.90;;;;;;5095582;28;20305;-50
2022/08/09 07:47:53;;;;;;;14.75;2.13;;;19.70;99.90;;;;;;5082589;28;20094;-51
2022/08/09 07:50:20;;;;;;;6.88;1.58;;;19.70;99.90;;;;;;5075390;28;20037;-52
2022/08/09 07:52:47;;;;;;;3.92;1.17;;;19.80;99.90;;;;;;5077113;28;20070;-49
2022/08/09 07:55:13;;;;;;;2.60;1.20;;;19.90;99.90;;;;;;5085454;28;20055;-52
2022/08/09 07:57:38;;;;;;;;;;;20.00;99.90;;;;;;5092878;28;20043;-56
2022/08/09 08:00:05;;;;;;;8.65;1.63;;;20.00;99.90;;;;;;5073495;28;19917;-53
2022/08/09 08:02:31;;;;;;;1.88;0.88;;;20.10;99.90;;;;;;5074640;28;20490;-52
2022/08/09 08:04:56;;;;;;;3.80;1.02;;;20.20;99.90;;;;;;5073431;28;20085;-51
2022/08/09 08:07:22;;;;;;;;;;;20.30;99.90;;;;;;5080294;28;20199;-52
2022/08/09 08:09:48;;;;;;;1.02;0.47;;;20.30;99.90;;;;;;5067615;28;20289;-50
2022/08/09 08:12:13;;;;;;;6.65;0.68;;;20.40;99.90;;;;;;5078060;28;20046;-56
2022/08/09 08:14:39;;;;;;;;;;;20.40;99.90;;;;;;5068313;28;20035;-52
2022/08/09 08:17:04;;;;;;;1.52;0.50;;;20.50;99.90;;;;;;5084765;28;19916;-53
2022/08/09 08:19:30;;;;;;;;;;;20.60;99.90;;;;;;5073846;28;20037;-48
2022/08/09 08:21:56;;;;;;;1.65;0.40;;;20.60;99.90;;;;;;5070495;28;20178;-50
2022/08/09 08:24:22;;;;;;;4.28;0.50;;;20.70;99.90;;;;;;5070797;28;20032;-50
2022/08/09 08:26:47;;;;;;;3.22;0.50;;;20.70;99.90;;;;;;5070773;28;20124;-53
2022/08/09 08:29:13;;;;;;;3.20;0.73;;;20.80;99.90;;;;;;5088555;28;20459;-53
2022/08/09 08:31:39;;;;;;;4.68;0.60;;;20.90;99.90;;;;;;5071045;28;20116;-52
2022/08/09 08:34:05;;;;;;;4.15;0.55;;;20.90;99.90;;;;;;5069444;28;20534;-53
2022/08/09 08:36:30;;;;;;;;;;;21.10;99.90;;;;;;5091324;28;20058;-49
2022/08/09 08:38:56;;;;;;;9.68;0.50;;;21.10;99.90;;;;;;5075434;28;19959;-52
2022/08/09 08:41:23;;;;;;;8.25;0.40;;;21.20;99.90;;;;;;5071854;28;20044;-48
2022/08/09 08:43:49;;;;;;;2.13;0.40;;;21.30;99.80;;;;;;5083855;28;20036;-50
2022/08/09 08:46:19;;;;;;;4.28;0.40;;;21.30;99.30;;;;;;5082307;28;20048;-50
2022/08/09 08:48:46;;;;;;;10.35;1.27;;;21.40;99.20;;;;;;5079539;28;20111;-47
2022/08/09 08:51:11;;;;;;;2.63;0.30;;;21.40;99.00;;;;;;5081186;28;20032;-51
2022/08/09 08:53:37;;;;;;;;;;;21.50;98.80;;;;;;5097800;28;20168;-48
2022/08/09 08:56:03;;;;;;;3.80;0.35;;;21.60;98.30;;;;;;5086802;28;19982;-48
2022/08/09 08:58:31;;;;;;;1.13;0.40;;;21.60;98.10;;;;;;5073975;28;20041;-51
2022/08/09 09:00:57;;;;;;;4.57;0.38;;;21.70;98.00;;;;;;5082470;28;20044;-50
2022/08/09 09:03:24;;;;;;;;;;;21.70;97.90;;;;;;5080603;28;20081;-50
2022/08/09 09:05:52;;;;;;;2.63;0.10;;;21.70;97.60;;;;;;5082600;28;19974;-52
2022/08/09 09:08:20;;;;;;;2.88;0.30;;;21.80;97.70;;;;;;5069957;28;20063;-49
2022/08/09 09:10:46;;;;;;;2.75;0.30;;;21.90;97.10;;;;;;5070310;28;20036;-52
2022/08/09 09:13:15;;;;;;;0.93;0.25;;;21.90;97.10;;;;;;5075536;28;20051;-50
2022/08/09 09:15:41;;;;;;;3.63;0.30;;;22.00;97.20;;;;;;5077945;28;20040;-53
2022/08/09 09:18:11;;;;;;;;;;;22.20;97.30;;;;;;5086475;28;20063;-51
2022/08/09 09:20:37;;;;;;;14.18;0.82;;;22.20;96.00;;;;;;5069870;28;20403;-48
2022/08/09 09:23:03;;;;;;;;;;;22.20;95.50;;;;;;5072897;28;20039;-49
2022/08/09 09:25:40;;;;;;;3.90;0.20;;;22.30;95.50;;;;;;5090380;28;19916;-52
2022/08/09 09:28:07;;;;;;;1.27;0.45;;;22.30;95.80;;;;;;5083663;28;20036;-52
2022/08/09 09:30:33;;;;;;;1.25;0.20;;;22.40;95.30;;;;;;5090107;28;20044;-48
2022/08/09 09:33:07;;;;;;;0.40;0.17;;;22.50;95.30;;;;;;5088588;28;20042;-49
2022/08/09 09:35:49;;;;;;;0.95;0.30;;;22.60;95.30;;;;;;5069220;28;20113;-50
2022/08/09 09:38:14;;;;;;;2.13;0.20;;;22.70;94.50;;;;;;5071269;28;20045;-52
2022/08/09 09:40:41;;;;;;;;;;;22.80;95.10;;;;;;5052337;28;20045;-52
2022/08/09 09:43:06;;;;;;;0.45;0.20;;;22.90;94.60;;;;;;5086489;28;19975;-49
2022/08/09 09:45:45;;;;;;;;;;;23.00;94.60;;;;;;5090516;28;20505;-51
2022/08/09 09:48:11;;;;;;;2.28;0.35;;;23.00;92.60;;;;;;5066461;28;20380;-48
2022/08/09 09:50:41;;;;;;;;;;;23.00;93.30;;;;;;5072322;28;20041;-53
2022/08/09 09:53:17;;;;;;;2.50;0.20;;;23.00;93.30;;;;;;5085527;28;20007;-52
2022/08/09 09:56:00;;;;;;;1.75;0.30;;;23.10;93.80;;;;;;5090128;28;20115;-47
2022/08/09 09:58:45;;;;;;;2.65;0.20;;;23.10;92.90;;;;;;5071550;28;20044;-51
2022/08/09 10:01:21;;;;;;;5.40;0.20;;;23.20;93.00;;;;;;5070803;28;20048;-49
2022/08/09 10:03:49;;;;;;;1.40;0.10;;;23.20;93.00;;;;;;5052751;28;20410;-48
2022/08/09 10:06:15;;;;;;;2.85;0.20;;;23.30;92.70;;;;;;5080614;28;20042;-49
2022/08/09 10:08:42;;;;;;;1.70;0.17;;;23.30;92.40;;;;;;5077939;28;20040;-50
2022/08/09 10:11:18;;;;;;;1.02;0.10;;;23.40;92.40;;;;;;5078883;28;20123;-52
2022/08/09 10:13:44;;;;;;;3.35;0.20;;;23.50;91.80;;;;;;5075434;28;20032;-54
2022/08/09 10:16:10;;;;;;;5.03;0.25;;;23.50;91.80;;;;;;5089055;28;20059;-47
2022/08/09 10:18:36;;;;;;;0.47;0.10;;;23.60;92.20;;;;;;5060541;28;20043;-51
2022/08/09 10:21:06;;;;;;;;;;;23.70;92.10;;;;;;5081430;28;20032;-50
2022/08/09 10:23:32;;;;;;;2.97;0.20;;;23.70;91.60;;;;;;5053637;28;19931;-54
2022/08/09 10:26:01;;;;;;;0.73;0.10;;;23.70;91.80;;;;;;5070427;28;20037;-52
2022/08/09 10:28:29;;;;;;;1.20;0.28;;;23.80;91.70;;;;;;5079582;28;20090;-52
2022/08/09 10:30:55;;;;;;;0.82;0.13;;;23.70;91.10;;;;;;5055019;28;20044;-54
2022/08/09 10:33:22;;;;;;;3.55;0.30;;;23.80;91.50;;;;;;5069386;28;20528;-51
2022/08/09 10:35:49;;;;;;;1.20;0.10;;;23.90;91.60;;;;;;5081638;28;20051;-51
2022/08/09 10:38:16;;;;;;;0.47;0.10;;;23.90;91.30;;;;;;5088165;28;20040;-53
2022/08/09 10:40:43;;;;;;;2.03;0.10;;;23.90;91.10;;;;;;5088083;28;20404;-53
2022/08/09 10:43:09;;;;;;;3.72;0.20;;;23.90;91.20;;;;;;5082506;28;20059;-51
2022/08/09 10:45:35;;;;;;;12.40;0.60;;;24.00;91.10;;;;;;5072634;28;20043;-49
2022/08/09 10:48:54;;;;;;;0.80;0.20;;;24.00;90.60;;;;;;5078215;28;20481;-53
2022/08/09 10:51:47;;;;;;;1.25;0.20;;;24.00;91.20;;;;;;4990800;28;20043;-53
2022/08/09 10:54:13;;;;;;;61.40;2.40;;;24.10;90.70;;;;;;4976727;28;20124;-54
2022/08/09 10:56:41;;;;;;;0.65;0.22;;;24.20;90.80;;;;;;4971255;28;20089;-50
2022/08/09 10:59:22;;;;;;;0.52;0.20;;;24.20;91.00;;;;;;4984375;28;20046;-49
2022/08/09 11:01:48;;;;;;;1.77;0.17;;;24.30;90.50;;;;;;4985957;28;20526;-51
2022/08/09 11:04:33;;;;;;;4.22;0.28;;;24.40;91.20;;;;;;4989495;28;20046;-51
2022/08/09 11:06:59;;;;;;;14.20;0.65;;;24.50;90.30;;;;;;4989334;28;20108;-50
2022/08/09 11:09:36;;;;;;;3.28;0.10;;;24.60;90.50;;;;;;4991039;28;20765;-49
2022/08/09 11:12:23;;;;;;;2.80;0.20;;;24.70;90.10;;;;;;4986956;28;20043;-49
2022/08/09 11:14:54;;;;;;;1.02;0.30;;;24.70;87.60;;;;;;4971086;28;20050;-49
2022/08/09 11:17:19;;;;;;;1.95;0.20;;;24.70;87.80;;;;;;4971728;28;20061;-51
2022/08/09 11:20:00;;;;;;;3.97;0.20;;;24.80;87.60;;;;;;4971198;28;20508;-48
2022/08/09 11:22:55;;;;;;;0.85;0.20;;;24.80;87.90;;;;;;5040960;28;20074;-47
2022/08/09 11:25:35;;;;;;;0.85;0.10;;;24.80;85.30;;;;;;5092788;28;20043;-49
2022/08/09 11:28:21;;;;;;;2.88;0.17;;;24.80;86.10;;;;;;5080930;28;20638;-53
2022/08/09 11:30:47;;;;;;;1.45;0.10;;;24.80;87.20;;;;;;5072245;28;20101;-52
2022/08/09 11:33:18;;;;;;;0.70;0.10;;;24.90;87.10;;;;;;5072882;28;20460;-53
2022/08/09 11:35:57;;;;;;;1.15;0.10;;;24.90;85.40;;;;;;5071866;28;20055;-49
2022/08/09 11:38:25;;;;;;;0.22;0.10;;;24.90;87.20;;;;;;5083789;28;20545;-52
2022/08/09 11:40:52;;;;;;;3.60;0.30;;;25.00;85.20;;;;;;5092341;28;20043;-48
2022/08/09 11:43:24;;;;;;;1.85;0.43;;;25.10;85.60;;;;;;5080071;28;20052;-50
2022/08/09 11:46:00;;;;;;;598.28;50.60;;;25.10;84.10;;;;;;5071616;28;20038;-50
2022/08/09 11:48:32;;;;;;;2.00;0.50;;;25.10;84.40;;;;;;5083838;28;20123;-48
2022/08/09 11:51:00;;;;;;;0.13;0.10;;;25.10;83.50;;;;;;5081334;28;20127;-54
2022/08/09 11:53:37;;;;;;;3.13;0.15;;;25.10;83.50;;;;;;5080736;28;20046;-53
2022/08/09 11:56:14;;;;;;;;;;;25.10;83.20;;;;;;5082695;28;20042;-47
2022/08/09 11:58:47;;;;;;;56.85;2.85;;;25.10;82.30;;;;;;5086109;28;19947;-50
2022/08/09 12:01:15;;;;;;;1.15;0.20;;;25.20;83.90;;;;;;5090121;28;20047;-52
2022/08/09 12:03:42;;;;;;;3.40;0.43;;;25.30;84.70;;;;;;5088610;28;20045;-53
2022/08/09 12:06:21;;;;;;;2.03;0.38;;;25.40;83.30;;;;;;5063649;28;20520;-49
2022/08/09 12:08:52;;;;;;;1.25;0.20;;;25.50;82.60;;;;;;5079458;28;20032;-50
2022/08/09 12:11:21;;;;;;;1.80;0.20;;;25.60;81.20;;;;;;5063348;28;20087;-52
2022/08/09 12:13:59;;;;;;;1.40;0.15;;;25.70;81.10;;;;;;5053016;28;20102;-53
2022/08/09 12:16:30;;;;;;;6.22;0.20;;;25.70;79.10;;;;;;5075142;28;20044;-49
2022/08/09 12:18:56;;;;;;;1.58;0.20;;;25.70;79.50;;;;;;5071568;28;20095;-49
2022/08/09 12:21:33;;;;;;;0.80;0.10;;;25.70;78.30;;;;;;5079716;28;20086;-54
2022/08/09 12:24:05;;;;;;;0.70;0.10;;;25.80;78.60;;;;;;5091287;28;20123;-52
2022/08/09 12:26:49;;;;;;;2.45;0.45;;;25.80;77.30;;;;;;5084414;28;20032;-52
2022/08/09 12:29:17;;;;;;;0.85;0.10;;;25.80;77.40;;;;;;5084627;28;20042;-54
2022/08/09 12:31:44;;;;;;;1.55;0.17;;;25.80;76.80;;;;;;5080797;28;20528;-50
2022/08/09 12:34:10;;;;;;;2.17;0.10;;;25.90;77.10;;;;;;5053067;28;20078;-50
2022/08/09 12:36:59;;;;;;;0.17;0.10;;;26.00;77.10;;;;;;5071039;28;20072;-52
2022/08/09 12:39:24;;;;;;;0.68;0.20;;;26.10;74.60;;;;;;5071153;28;20052;-54
2022/08/09 12:41:50;;;;;;;1.48;0.00;;;26.10;75.10;;;;;;5081179;28;20439;-53
2022/08/09 12:44:16;;;;;;;2.35;0.22;;;26.10;74.00;;;;;;5090792;28;20036;-55
2022/08/09 12:46:43;;;;;;;2.85;0.20;;;26.10;73.30;;;;;;5081776;28;20029;-53
2022/08/09 12:49:10;;;;;;;1.17;0.35;;;26.20;73.90;;;;;;5070402;28;20115;-54
2022/08/09 12:51:36;;;;;;;1.35;0.10;;;26.20;72.80;;;;;;5077973;28;20062;-54
2022/08/09 12:54:04;;;;;;;1.48;0.45;;;26.30;73.30;;;;;;5090675;28;20048;-52
2022/08/09 12:56:30;;;;;;;1.17;0.10;;;26.20;73.90;;;;;;5085039;28;20032;-55
2022/08/09 12:59:09;;;;;;;1.90;0.10;;;26.20;73.40;;;;;;5070432;28;20048;-53
2022/08/09 13:01:36;;;;;;;3.17;0.10;;;26.20;72.00;;;;;;5076081;28;20149;-51